createdAt,value
2018-02-09T00:00:02.793Z,22.4
2018-02-09T00:01:04.403Z,21.5
2018-02-09T00:02:06.010Z,23.5
2018-02-09T00:03:07.620Z,26.6
2018-02-09T00:04:09.228Z,29.5
2018-02-09T00:05:10.933Z,17.1
2018-02-09T00:06:13.107Z,18.4
2018-02-09T00:07:15.297Z,22.6
2018-02-09T00:08:16.902Z,20.4
2018-02-09T00:09:18.519Z,21.9
2018-02-09T00:10:20.308Z,23.6
2018-02-09T00:11:21.924Z,24.9
2018-02-09T00:12:23.534Z,23.2
2018-02-09T00:13:25.308Z,19.9
2018-02-09T00:14:26.919Z,24.4
2018-02-09T00:15:28.529Z,18.8
2018-02-09T00:16:30.133Z,19.5
2018-02-09T00:17:31.977Z,31.0
2018-02-09T00:18:33.589Z,20.3
2018-02-09T00:19:35.190Z,19.1
2018-02-09T00:20:37.039Z,26.0
2018-02-09T00:21:38.641Z,20.0
2018-02-09T00:22:40.253Z,18.4
2018-02-09T00:23:41.857Z,23.4
2018-02-09T00:24:43.496Z,22.8
2018-02-09T00:25:45.223Z,24.4
2018-02-09T00:26:46.832Z,16.0
2018-02-09T00:27:48.434Z,21.6
2018-02-09T00:28:50.039Z,24.8
2018-02-09T00:29:51.643Z,18.2
2018-02-09T00:30:53.249Z,22.2
2018-02-09T00:31:54.856Z,19.3
2018-02-09T00:32:56.467Z,23.9
2018-02-09T00:33:58.184Z,23.8
2018-02-09T00:35:00.020Z,23.2
2018-02-09T00:36:01.613Z,26.7
2018-02-09T00:37:03.217Z,22.8
2018-02-09T00:38:04.868Z,28.8
2018-02-09T00:39:06.520Z,20.6
2018-02-09T00:40:08.138Z,33.0
2018-02-09T00:41:10.050Z,26.6
2018-02-09T00:42:11.660Z,27.6
2018-02-09T00:43:13.438Z,25.0
2018-02-09T00:44:15.174Z,30.8
2018-02-09T00:45:16.779Z,17.2
2018-02-09T00:46:18.575Z,25.8
2018-02-09T00:47:20.388Z,18.8
2018-02-09T00:48:22.000Z,28.2
2018-02-09T00:49:23.603Z,21.6
2018-02-09T00:50:25.308Z,35.1
2018-02-09T00:51:27.456Z,26.4
2018-02-09T00:52:29.066Z,27.0
2018-02-09T00:53:30.670Z,27.9
2018-02-09T00:54:32.273Z,22.4
2018-02-09T00:55:34.030Z,23.0
2018-02-09T00:56:35.636Z,19.0
2018-02-09T00:57:37.234Z,26.2
2018-02-09T00:58:39.562Z,16.4
2018-02-09T00:59:41.376Z,23.3
2018-02-09T01:00:42.983Z,22.3
2018-02-09T01:01:44.909Z,15.6
2018-02-09T01:02:46.795Z,24.4
2018-02-09T01:03:48.582Z,34.5
2018-02-09T01:04:50.325Z,24.5
2018-02-09T01:05:51.937Z,23.7
2018-02-09T01:06:53.549Z,20.2
2018-02-09T01:07:55.151Z,27.8
2018-02-09T01:08:56.759Z,21.7
2018-02-09T01:09:58.679Z,26.4
2018-02-09T01:11:00.288Z,24.6
2018-02-09T01:12:01.919Z,22.0
2018-02-09T01:13:04.814Z,24.0
2018-02-09T01:14:06.576Z,26.2
2018-02-09T01:15:08.194Z,18.2
2018-02-09T01:16:10.150Z,24.8
2018-02-09T01:17:11.758Z,24.1
2018-02-09T01:18:13.362Z,19.4
2018-02-09T01:19:15.191Z,28.0
2018-02-09T01:20:16.799Z,31.0
2018-02-09T01:21:18.404Z,24.0
2018-02-09T01:22:20.021Z,27.0
2018-02-09T01:23:21.624Z,20.2
2018-02-09T01:24:23.236Z,22.0
2018-02-09T01:25:24.966Z,20.8
2018-02-09T01:26:26.575Z,20.2
2018-02-09T01:27:28.180Z,25.1
2018-02-09T01:28:29.819Z,17.7
2018-02-09T01:29:31.424Z,16.0
2018-02-09T01:30:33.028Z,29.2
2018-02-09T01:31:34.677Z,20.0
2018-02-09T01:32:36.282Z,24.6
2018-02-09T01:33:37.891Z,18.5
2018-02-09T01:34:39.499Z,16.8
2018-02-09T01:35:41.106Z,18.4
2018-02-09T01:36:42.717Z,20.7
2018-02-09T01:37:44.324Z,25.2
2018-02-09T01:38:45.926Z,25.6
2018-02-09T01:39:47.536Z,17.8
2018-02-09T01:40:49.180Z,20.1
2018-02-09T01:41:51.704Z,20.4
2018-02-09T01:42:53.307Z,21.3
2018-02-09T01:43:54.919Z,28.6
2018-02-09T01:44:56.518Z,15.0
2018-02-09T01:45:58.124Z,19.7
2018-02-09T01:46:59.731Z,12.8
2018-02-09T01:48:01.339Z,28.5
2018-02-09T01:49:02.944Z,23.9
2018-02-09T01:50:04.549Z,21.3
2018-02-09T01:51:06.160Z,19.5
2018-02-09T01:52:07.767Z,21.3
2018-02-09T01:53:09.372Z,25.0
2018-02-09T01:54:10.975Z,20.9
2018-02-09T01:55:12.585Z,30.3
2018-02-09T01:56:14.191Z,22.3
2018-02-09T01:57:15.803Z,20.8
2018-02-09T01:58:17.406Z,21.8
2018-02-09T01:59:19.014Z,25.4
2018-02-09T02:00:20.617Z,20.9
2018-02-09T02:01:22.228Z,16.9
2018-02-09T02:02:23.837Z,19.7
2018-02-09T02:03:25.440Z,23.0
2018-02-09T02:04:27.048Z,20.9
2018-02-09T02:05:28.660Z,24.4
2018-02-09T02:06:30.267Z,24.0
2018-02-09T02:07:31.868Z,19.5
2018-02-09T02:08:33.473Z,28.7
2018-02-09T02:09:35.084Z,21.2
2018-02-09T02:10:36.691Z,26.1
2018-02-09T02:11:38.309Z,19.9
2018-02-09T02:12:39.916Z,20.9
2018-02-09T02:13:41.521Z,26.2
2018-02-09T02:14:43.122Z,27.6
2018-02-09T02:15:44.733Z,22.3
2018-02-09T02:16:46.338Z,19.3
2018-02-09T02:17:47.945Z,21.1
2018-02-09T02:18:49.550Z,22.8
2018-02-09T02:19:51.161Z,23.1
2018-02-09T02:20:52.763Z,31.3
2018-02-09T02:21:54.373Z,22.9
2018-02-09T02:22:55.974Z,21.5
2018-02-09T02:23:57.584Z,22.1
2018-02-09T02:24:59.187Z,30.7
2018-02-09T02:26:00.797Z,19.6
2018-02-09T02:27:02.402Z,22.8
2018-02-09T02:28:04.010Z,19.9
2018-02-09T02:29:05.618Z,18.7
2018-02-09T02:30:07.220Z,26.4
2018-02-09T02:31:08.829Z,25.6
2018-02-09T02:32:10.430Z,14.6
2018-02-09T02:33:12.043Z,21.5
2018-02-09T02:34:13.646Z,12.7
2018-02-09T02:35:15.253Z,24.5
2018-02-09T02:36:16.855Z,13.4
2018-02-09T02:37:18.467Z,17.8
2018-02-09T02:38:20.068Z,22.2
2018-02-09T02:39:21.679Z,22.8
2018-02-09T02:40:23.292Z,20.1
2018-02-09T02:41:24.893Z,16.7
2018-02-09T02:42:26.498Z,27.2
2018-02-09T02:43:28.737Z,18.3
2018-02-09T02:44:30.346Z,25.9
2018-02-09T02:45:31.945Z,20.4
2018-02-09T02:46:33.558Z,21.7
2018-02-09T02:47:35.162Z,26.2
2018-02-09T02:48:36.775Z,14.5
2018-02-09T02:49:38.380Z,17.0
2018-02-09T02:50:39.984Z,18.5
2018-02-09T02:51:41.584Z,27.3
2018-02-09T02:52:43.194Z,20.5
2018-02-09T02:53:44.797Z,26.6
2018-02-09T02:54:46.408Z,22.9
2018-02-09T02:55:48.012Z,21.4
2018-02-09T02:56:49.620Z,27.0
2018-02-09T02:57:51.221Z,30.6
2018-02-09T02:58:52.829Z,28.4
2018-02-09T02:59:54.434Z,15.8
2018-02-09T03:00:56.544Z,26.2
2018-02-09T03:01:57.602Z,23.4
2018-02-09T03:02:59.208Z,15.9
2018-02-09T03:04:00.817Z,22.5
2018-02-09T03:05:02.419Z,48.4
2018-02-09T03:06:04.026Z,29.5
2018-02-09T03:07:05.630Z,15.2
2018-02-09T03:08:07.240Z,35.5
2018-02-09T03:09:08.845Z,29.3
2018-02-09T03:10:10.461Z,20.1
2018-02-09T03:11:12.101Z,20.3
2018-02-09T03:12:13.665Z,27.4
2018-02-09T03:13:15.266Z,19.3
2018-02-09T03:14:16.876Z,29.6
2018-02-09T03:15:18.479Z,14.6
2018-02-09T03:16:20.088Z,22.6
2018-02-09T03:17:21.693Z,21.7
2018-02-09T03:18:23.295Z,22.7
2018-02-09T03:19:24.910Z,26.3
2018-02-09T03:20:26.511Z,21.2
2018-02-09T03:21:28.113Z,17.7
2018-02-09T03:22:29.720Z,16.9
2018-02-09T03:23:31.330Z,20.2
2018-02-09T03:24:32.938Z,36.8
2018-02-09T03:25:34.542Z,17.5
2018-02-09T03:26:36.141Z,16.8
2018-02-09T03:27:37.750Z,19.0
2018-02-09T03:28:39.360Z,24.1
2018-02-09T03:29:40.965Z,16.9
2018-02-09T03:30:42.572Z,21.1
2018-02-09T03:31:44.181Z,31.7
2018-02-09T03:32:45.789Z,19.1
2018-02-09T03:33:47.393Z,16.2
2018-02-09T03:34:49.003Z,17.4
2018-02-09T03:35:50.603Z,22.8
2018-02-09T03:36:52.209Z,19.8
2018-02-09T03:37:53.817Z,15.9
2018-02-09T03:38:55.427Z,25.3
2018-02-09T03:39:57.031Z,14.0
2018-02-09T03:40:58.634Z,25.9
2018-02-09T03:42:00.243Z,27.3
2018-02-09T03:43:01.850Z,19.2
2018-02-09T03:44:03.452Z,22.8
2018-02-09T03:45:05.060Z,22.0
2018-02-09T03:46:06.670Z,13.9
2018-02-09T03:47:08.278Z,18.1
2018-02-09T03:48:09.880Z,27.2
2018-02-09T03:49:11.483Z,22.9
2018-02-09T03:50:13.093Z,19.8
2018-02-09T03:51:14.697Z,18.3
2018-02-09T03:52:16.309Z,19.8
2018-02-09T03:53:17.918Z,19.3
2018-02-09T03:54:19.518Z,17.5
2018-02-09T03:55:21.122Z,18.7
2018-02-09T03:56:22.726Z,22.4
2018-02-09T03:57:24.333Z,12.4
2018-02-09T03:58:25.936Z,21.6
2018-02-09T03:59:27.544Z,32.6
2018-02-09T04:00:29.155Z,21.4
2018-02-09T04:01:30.757Z,22.6
2018-02-09T04:02:32.366Z,25.2
2018-02-09T04:03:33.969Z,20.5
2018-02-09T04:04:35.576Z,19.3
2018-02-09T04:05:37.186Z,24.8
2018-02-09T04:06:38.794Z,20.5
2018-02-09T04:07:40.402Z,14.2
2018-02-09T04:08:42.004Z,20.7
2018-02-09T04:09:43.607Z,19.1
2018-02-09T04:10:45.217Z,29.6
2018-02-09T04:11:46.826Z,17.2
2018-02-09T04:12:48.427Z,16.3
2018-02-09T04:13:50.035Z,19.4
2018-02-09T04:14:52.250Z,21.4
2018-02-09T04:15:53.855Z,15.1
2018-02-09T04:16:55.463Z,29.8
2018-02-09T04:17:57.060Z,22.3
2018-02-09T04:18:58.664Z,23.4
2018-02-09T04:20:00.792Z,21.1
2018-02-09T04:21:02.402Z,24.9
2018-02-09T04:22:04.007Z,25.0
2018-02-09T04:23:05.613Z,23.6
2018-02-09T04:24:07.219Z,24.6
2018-02-09T04:25:08.823Z,23.3
2018-02-09T04:26:10.433Z,17.7
2018-02-09T04:27:12.037Z,27.5
2018-02-09T04:28:13.649Z,36.4
2018-02-09T04:29:15.252Z,30.5
2018-02-09T04:30:16.861Z,27.0
2018-02-09T04:31:18.508Z,23.8
2018-02-09T04:32:20.075Z,26.0
2018-02-09T04:33:22.617Z,29.1
2018-02-09T04:34:24.220Z,30.8
2018-02-09T04:35:25.830Z,41.2
2018-02-09T04:36:27.434Z,35.8
2018-02-09T04:37:29.051Z,29.2
2018-02-09T04:38:30.650Z,35.1
2018-02-09T04:39:32.258Z,20.6
2018-02-09T04:40:33.861Z,19.5
2018-02-09T04:41:35.471Z,24.3
2018-02-09T04:42:37.078Z,25.9
2018-02-09T04:43:38.688Z,23.3
2018-02-09T04:44:40.289Z,23.0
2018-02-09T04:45:41.896Z,19.7
2018-02-09T04:46:43.497Z,28.9
2018-02-09T04:47:45.108Z,20.6
2018-02-09T04:48:46.711Z,23.6
2018-02-09T04:49:48.334Z,31.5
2018-02-09T04:50:49.929Z,16.5
2018-02-09T04:51:51.529Z,20.4
2018-02-09T04:52:53.137Z,17.9
2018-02-09T04:53:54.744Z,42.0
2018-02-09T04:54:56.344Z,25.0
2018-02-09T04:55:57.949Z,14.9
2018-02-09T04:56:59.553Z,18.9
2018-02-09T04:58:01.165Z,24.1
2018-02-09T04:59:02.773Z,20.3
2018-02-09T05:00:04.374Z,21.2
2018-02-09T05:01:05.977Z,16.0
2018-02-09T05:02:07.587Z,29.2
2018-02-09T05:03:09.196Z,24.9
2018-02-09T05:04:10.799Z,17.4
2018-02-09T05:05:12.410Z,30.6
2018-02-09T05:06:14.016Z,26.4
2018-02-09T05:07:15.616Z,19.9
2018-02-09T05:08:17.224Z,25.8
2018-02-09T05:09:18.827Z,38.2
2018-02-09T05:10:20.439Z,24.8
2018-02-09T05:11:22.044Z,24.3
2018-02-09T05:12:24.243Z,21.2
2018-02-09T05:13:25.858Z,22.6
2018-02-09T05:14:27.455Z,26.1
2018-02-09T05:15:29.058Z,20.5
2018-02-09T05:16:30.667Z,24.6
2018-02-09T05:17:32.276Z,20.2
2018-02-09T05:18:33.883Z,19.8
2018-02-09T05:19:35.488Z,21.0
2018-02-09T05:20:37.095Z,17.9
2018-02-09T05:21:38.702Z,23.9
2018-02-09T05:22:40.311Z,29.8
2018-02-09T05:23:41.921Z,14.6
2018-02-09T05:24:43.525Z,24.0
2018-02-09T05:25:45.131Z,20.2
2018-02-09T05:26:46.737Z,21.9
2018-02-09T05:27:48.342Z,19.0
2018-02-09T05:28:49.952Z,22.4
2018-02-09T05:29:51.558Z,34.6
2018-02-09T05:30:54.064Z,20.4
2018-02-09T05:31:55.675Z,17.3
2018-02-09T05:32:57.279Z,23.9
2018-02-09T05:33:58.891Z,25.4
2018-02-09T05:35:00.491Z,23.6
2018-02-09T05:36:02.100Z,21.3
2018-02-09T05:37:03.708Z,18.8
2018-02-09T05:38:05.310Z,27.4
2018-02-09T05:39:06.916Z,22.7
2018-02-09T05:40:08.523Z,17.0
2018-02-09T05:41:10.136Z,29.6
2018-02-09T05:42:11.738Z,22.5
2018-02-09T05:43:13.341Z,14.5
2018-02-09T05:44:14.947Z,31.6
2018-02-09T05:45:16.551Z,26.5
2018-02-09T05:46:18.160Z,35.5
2018-02-09T05:47:19.769Z,21.1
2018-02-09T05:48:21.373Z,19.3
2018-02-09T05:49:22.981Z,19.0
2018-02-09T05:50:24.583Z,19.3
2018-02-09T05:51:26.194Z,22.2
2018-02-09T05:52:27.796Z,21.1
2018-02-09T05:53:29.404Z,23.6
2018-02-09T05:54:31.017Z,19.5
2018-02-09T05:55:32.622Z,21.8
2018-02-09T05:56:34.226Z,26.2
2018-02-09T05:57:35.831Z,22.2
2018-02-09T05:58:37.436Z,20.6
2018-02-09T05:59:39.045Z,17.7
2018-02-09T06:00:40.657Z,18.6
2018-02-09T06:01:42.254Z,23.2
2018-02-09T06:02:43.862Z,24.7
2018-02-09T06:03:45.472Z,24.7
2018-02-09T06:04:47.078Z,31.3
2018-02-09T06:05:48.679Z,30.6
2018-02-09T06:06:50.284Z,19.4
2018-02-09T06:07:51.891Z,15.1
2018-02-09T06:08:53.501Z,26.4
2018-02-09T06:09:55.112Z,20.3
2018-02-09T06:10:56.710Z,33.2
2018-02-09T06:11:58.320Z,22.4
2018-02-09T06:12:59.926Z,27.9
2018-02-09T06:14:01.529Z,17.9
2018-02-09T06:15:03.135Z,29.2
2018-02-09T06:16:04.746Z,14.2
2018-02-09T06:17:06.355Z,25.9
2018-02-09T06:18:07.955Z,22.6
2018-02-09T06:19:09.563Z,16.6
2018-02-09T06:20:11.163Z,30.9
2018-02-09T06:21:12.765Z,17.4
2018-02-09T06:22:14.376Z,28.6
2018-02-09T06:23:15.987Z,20.3
2018-02-09T06:24:17.590Z,17.5
2018-02-09T06:25:19.192Z,19.3
2018-02-09T06:26:20.802Z,31.8
2018-02-09T06:27:22.408Z,17.5
2018-02-09T06:28:24.012Z,25.7
2018-02-09T06:29:25.617Z,22.8
2018-02-09T06:30:27.229Z,20.3
2018-02-09T06:31:28.836Z,23.7
2018-02-09T06:32:30.437Z,25.0
2018-02-09T06:33:32.044Z,24.2
2018-02-09T06:34:33.653Z,20.0
2018-02-09T06:35:35.259Z,17.1
2018-02-09T06:36:36.871Z,18.3
2018-02-09T06:37:38.475Z,20.9
2018-02-09T06:38:40.089Z,21.2
2018-02-09T06:39:41.689Z,19.5
2018-02-09T06:40:43.300Z,20.7
2018-02-09T06:41:44.901Z,11.7
2018-02-09T06:42:46.510Z,23.7
2018-02-09T06:43:48.113Z,24.9
2018-02-09T06:44:49.727Z,23.8
2018-02-09T06:45:51.332Z,18.5
2018-02-09T06:46:52.944Z,80.4
2018-02-09T06:47:54.547Z,26.9
2018-02-09T06:48:56.161Z,22.9
2018-02-09T06:49:57.767Z,17.0
2018-02-09T06:50:59.379Z,26.4
2018-02-09T06:52:00.993Z,23.4
2018-02-09T06:53:02.601Z,23.7
2018-02-09T06:54:04.209Z,19.0
2018-02-09T06:55:05.815Z,18.9
2018-02-09T06:56:07.426Z,28.0
2018-02-09T06:57:09.033Z,22.8
2018-02-09T06:58:10.647Z,22.7
2018-02-09T06:59:12.256Z,27.2
2018-02-09T07:00:13.867Z,21.8
2018-02-09T07:01:15.474Z,36.9
2018-02-09T07:02:17.085Z,18.7
2018-02-09T07:03:18.689Z,26.4
2018-02-09T07:04:20.315Z,23.2
2018-02-09T07:05:21.910Z,23.3
2018-02-09T07:06:23.525Z,21.1
2018-02-09T07:07:25.135Z,22.1
2018-02-09T07:08:26.740Z,30.5
2018-02-09T07:09:28.352Z,22.3
2018-02-09T07:10:29.962Z,24.4
2018-02-09T07:11:31.573Z,24.9
2018-02-09T07:12:33.177Z,19.7
2018-02-09T07:13:34.790Z,20.5
2018-02-09T07:14:36.404Z,26.3
2018-02-09T07:15:38.009Z,23.0
2018-02-09T07:16:39.622Z,24.8
2018-02-09T07:17:41.232Z,17.4
2018-02-09T07:18:42.846Z,27.2
2018-02-09T07:19:44.453Z,13.7
2018-02-09T07:20:46.068Z,20.8
2018-02-09T07:21:47.676Z,20.6
2018-02-09T07:22:49.283Z,19.4
2018-02-09T07:23:50.894Z,25.3
2018-02-09T07:24:52.505Z,18.7
2018-02-09T07:25:54.115Z,24.8
2018-02-09T07:26:55.724Z,19.4
2018-02-09T07:27:58.243Z,25.6
2018-02-09T07:28:59.854Z,19.4
2018-02-09T07:30:01.464Z,29.8
2018-02-09T07:31:03.070Z,14.8
2018-02-09T07:32:04.685Z,21.0
2018-02-09T07:33:06.296Z,26.3
2018-02-09T07:34:07.910Z,22.3
2018-02-09T07:35:09.524Z,27.7
2018-02-09T07:36:11.135Z,86.4
2018-02-09T07:37:12.742Z,61.8
2018-02-09T07:38:14.358Z,54.4
2018-02-09T07:39:15.967Z,54.7
2018-02-09T07:40:17.582Z,52.7
2018-02-09T07:41:19.190Z,52.9
2018-02-09T07:42:20.807Z,54.3
2018-02-09T07:43:22.416Z,58.4
2018-02-09T07:44:24.033Z,53.9
2018-02-09T07:45:25.637Z,33.0
2018-02-09T07:46:27.253Z,13.6
2018-02-09T07:47:28.864Z,24.2
2018-02-09T07:48:30.477Z,18.7
2018-02-09T07:49:32.092Z,25.1
2018-02-09T07:50:33.703Z,24.8
2018-02-09T07:51:35.360Z,26.7
2018-02-09T07:52:36.924Z,25.7
2018-02-09T07:53:38.537Z,19.8
2018-02-09T07:54:40.149Z,20.3
2018-02-09T07:55:41.764Z,19.4
2018-02-09T07:56:43.374Z,20.3
2018-02-09T07:57:44.991Z,21.3
2018-02-09T07:58:46.599Z,21.5
2018-02-09T07:59:48.217Z,21.6
2018-02-09T08:00:49.822Z,30.3
2018-02-09T08:01:51.438Z,24.7
2018-02-09T08:02:53.045Z,17.9
2018-02-09T08:03:54.660Z,27.9
2018-02-09T08:04:56.272Z,23.5
2018-02-09T08:05:57.885Z,23.8
2018-02-09T08:06:59.494Z,33.6
2018-02-09T08:08:01.105Z,25.4
2018-02-09T08:09:02.718Z,33.3
2018-02-09T08:10:04.334Z,23.4
2018-02-09T08:11:05.944Z,35.2
2018-02-09T08:12:07.558Z,35.1
2018-02-09T08:13:09.670Z,29.9
2018-02-09T08:14:11.281Z,25.1
2018-02-09T08:15:12.889Z,38.9
2018-02-09T08:16:14.506Z,43.0
2018-02-09T08:17:16.123Z,24.5
2018-02-09T08:18:17.731Z,26.6
2018-02-09T08:19:19.346Z,21.6
2018-02-09T08:20:20.955Z,28.3
2018-02-09T08:21:22.565Z,27.9
2018-02-09T08:22:24.180Z,27.5
2018-02-09T08:23:25.786Z,20.9
2018-02-09T08:24:27.400Z,25.7
2018-02-09T08:25:29.016Z,25.8
2018-02-09T08:26:30.631Z,35.5
2018-02-09T08:27:32.237Z,23.5
2018-02-09T08:28:33.851Z,27.0
2018-02-09T08:29:35.463Z,28.9
2018-02-09T08:30:37.071Z,23.2
2018-02-09T08:31:38.689Z,32.1
2018-02-09T08:32:41.186Z,26.3
2018-02-09T08:33:42.800Z,28.2
2018-02-09T08:34:44.407Z,33.9
2018-02-09T08:35:46.024Z,22.6
2018-02-09T08:36:47.634Z,25.5
2018-02-09T08:37:49.253Z,31.5
2018-02-09T08:38:50.864Z,31.7
2018-02-09T08:39:52.472Z,26.8
2018-02-09T08:40:54.080Z,29.3
2018-02-09T08:41:55.690Z,27.8
2018-02-09T08:42:57.299Z,20.0
2018-02-09T08:43:58.911Z,31.4
2018-02-09T08:45:00.516Z,28.8
2018-02-09T08:46:02.125Z,30.4
2018-02-09T08:47:03.733Z,29.3
2018-02-09T08:48:05.346Z,33.3
2018-02-09T08:49:06.962Z,36.2
2018-02-09T08:50:08.566Z,29.6
2018-02-09T08:51:10.167Z,33.2
2018-02-09T08:52:11.778Z,30.1
2018-02-09T08:53:13.391Z,33.2
2018-02-09T08:54:15.007Z,32.4
2018-02-09T08:55:16.616Z,36.6
2018-02-09T08:56:18.226Z,39.8
2018-02-09T08:57:19.837Z,32.8
2018-02-09T08:58:21.450Z,26.6
2018-02-09T08:59:23.091Z,37.8
2018-02-09T09:00:24.677Z,35.1
2018-02-09T09:01:26.286Z,37.2
2018-02-09T09:02:27.898Z,34.0
2018-02-09T09:03:29.513Z,33.0
2018-02-09T09:04:31.121Z,35.1
2018-02-09T09:05:32.732Z,39.4
2018-02-09T09:06:34.350Z,32.0
2018-02-09T09:07:35.961Z,30.6
2018-02-09T09:08:37.574Z,36.8
2018-02-09T09:09:39.187Z,38.2
2018-02-09T09:10:40.808Z,32.7
2018-02-09T09:11:42.416Z,32.5
2018-02-09T09:12:44.033Z,29.3
2018-02-09T09:13:45.647Z,34.7
2018-02-09T09:14:47.259Z,39.2
2018-02-09T09:15:48.873Z,31.1
2018-02-09T09:16:50.492Z,39.5
2018-02-09T09:17:52.108Z,41.7
2018-02-09T09:18:53.723Z,29.1
2018-02-09T09:19:55.340Z,43.9
2018-02-09T09:20:56.950Z,39.7
2018-02-09T09:21:58.570Z,43.4
2018-02-09T09:23:00.184Z,38.4
2018-02-09T09:24:01.802Z,46.4
2018-02-09T09:25:03.414Z,49.1
2018-02-09T09:26:05.034Z,52.7
2018-02-09T09:27:06.645Z,53.9
2018-02-09T09:28:08.311Z,50.0
2018-02-09T09:29:09.878Z,53.7
2018-02-09T09:30:11.492Z,58.9
2018-02-09T09:31:13.112Z,56.2
2018-02-09T09:32:14.730Z,49.6
2018-02-09T09:33:16.346Z,52.0
2018-02-09T09:34:18.012Z,59.9
2018-02-09T09:35:19.580Z,58.5
2018-02-09T09:36:21.193Z,56.7
2018-02-09T09:37:22.814Z,56.8
2018-02-09T09:38:24.429Z,55.5
2018-02-09T09:39:26.058Z,56.2
2018-02-09T09:40:27.658Z,51.9
2018-02-09T09:41:29.278Z,49.4
2018-02-09T09:42:30.886Z,55.8
2018-02-09T09:43:32.506Z,51.5
2018-02-09T09:44:34.123Z,54.9
2018-02-09T09:45:35.745Z,52.8
2018-02-09T09:46:37.353Z,52.0
2018-02-09T09:47:38.969Z,62.5
2018-02-09T09:48:40.583Z,51.7
2018-02-09T09:49:42.199Z,51.2
2018-02-09T09:50:43.815Z,50.1
2018-02-09T09:51:45.436Z,49.4
2018-02-09T09:52:47.050Z,54.6
2018-02-09T09:53:48.667Z,55.0
2018-02-09T09:54:50.285Z,53.4
2018-02-09T09:55:51.899Z,56.1
2018-02-09T09:56:53.516Z,52.7
2018-02-09T09:57:55.137Z,52.1
2018-02-09T09:58:56.755Z,55.0
2018-02-09T09:59:58.372Z,52.7
2018-02-09T10:00:59.984Z,53.7
2018-02-09T10:02:01.602Z,50.0
2018-02-09T10:03:03.216Z,61.2
2018-02-09T10:04:04.836Z,57.6
2018-02-09T10:05:06.455Z,54.3
2018-02-09T10:06:08.070Z,53.1
2018-02-09T10:07:09.691Z,51.5
2018-02-09T10:08:11.309Z,59.1
2018-02-09T10:09:12.927Z,57.3
2018-02-09T10:10:14.540Z,58.2
2018-02-09T10:11:16.157Z,60.0
2018-02-09T10:12:17.777Z,56.5
2018-02-09T10:13:19.397Z,60.5
2018-02-09T10:14:21.014Z,58.7
2018-02-09T10:15:22.626Z,59.6
2018-02-09T10:16:24.290Z,53.4
2018-02-09T10:17:25.865Z,57.1
2018-02-09T10:18:27.484Z,57.8
2018-02-09T10:19:29.684Z,62.6
2018-02-09T10:20:31.301Z,58.3
2018-02-09T10:21:32.916Z,58.3
2018-02-09T10:22:34.535Z,57.2
2018-02-09T10:23:36.150Z,60.4
2018-02-09T10:24:37.764Z,51.2
2018-02-09T10:25:39.380Z,60.9
2018-02-09T10:26:41.000Z,64.4
2018-02-09T10:27:42.615Z,62.6
2018-02-09T10:28:44.238Z,60.6
2018-02-09T10:29:45.847Z,61.3
2018-02-09T10:30:47.470Z,56.8
2018-02-09T10:31:49.131Z,57.2
2018-02-09T10:32:50.701Z,56.5
2018-02-09T10:33:52.318Z,67.6
2018-02-09T10:34:53.935Z,60.1
2018-02-09T10:35:55.555Z,63.3
2018-02-09T10:36:57.168Z,66.8
2018-02-09T10:37:58.787Z,62.2
2018-02-09T10:39:00.400Z,63.4
2018-02-09T10:40:02.019Z,56.8
2018-02-09T10:41:03.633Z,58.0
2018-02-09T10:42:05.253Z,54.7
2018-02-09T10:43:06.868Z,57.9
2018-02-09T10:44:08.486Z,60.4
2018-02-09T10:45:10.098Z,61.9
2018-02-09T10:46:11.720Z,56.3
2018-02-09T10:47:13.332Z,56.6
2018-02-09T10:48:14.948Z,61.8
2018-02-09T10:49:16.564Z,53.9
2018-02-09T10:50:18.186Z,65.3
2018-02-09T10:51:19.796Z,63.4
2018-02-09T10:52:21.414Z,64.7
2018-02-09T10:53:23.028Z,72.3
2018-02-09T10:54:24.645Z,57.3
2018-02-09T10:55:26.260Z,66.4
2018-02-09T10:56:27.875Z,62.2
2018-02-09T10:57:29.495Z,54.8
2018-02-09T10:58:31.106Z,52.6
2018-02-09T10:59:32.725Z,60.7
2018-02-09T11:00:34.342Z,61.0
2018-02-09T11:01:35.954Z,64.3
2018-02-09T11:02:37.569Z,58.3
2018-02-09T11:03:39.190Z,65.3
2018-02-09T11:04:40.810Z,61.3
2018-02-09T11:05:42.418Z,52.5
2018-02-09T11:06:44.042Z,67.4
2018-02-09T11:07:45.651Z,52.9
2018-02-09T11:08:47.271Z,56.4
2018-02-09T11:09:48.883Z,55.3
2018-02-09T11:10:50.950Z,59.4
2018-02-09T11:11:52.567Z,59.3
2018-02-09T11:12:54.174Z,62.9
2018-02-09T11:13:55.794Z,66.5
2018-02-09T11:14:57.410Z,58.5
2018-02-09T11:15:59.713Z,52.6
2018-02-09T11:17:01.328Z,61.2
2018-02-09T11:18:02.946Z,63.4
2018-02-09T11:19:04.565Z,62.6
2018-02-09T11:20:06.176Z,65.8
2018-02-09T11:21:07.789Z,63.1
2018-02-09T11:22:09.408Z,53.0
2018-02-09T11:23:11.022Z,59.2
2018-02-09T11:24:12.640Z,59.9
2018-02-09T11:25:14.258Z,61.6
2018-02-09T11:26:15.873Z,68.0
2018-02-09T11:27:17.499Z,72.4
2018-02-09T11:28:19.104Z,59.2
2018-02-09T11:29:20.718Z,68.8
2018-02-09T11:30:22.338Z,67.3
2018-02-09T11:31:23.951Z,67.8
2018-02-09T11:32:25.570Z,65.7
2018-02-09T11:33:27.200Z,58.6
2018-02-09T11:34:28.831Z,59.1
2018-02-09T11:35:30.443Z,63.4
2018-02-09T11:36:32.061Z,63.9
2018-02-09T11:37:33.673Z,59.0
2018-02-09T11:38:35.290Z,58.7
2018-02-09T11:39:36.903Z,61.3
2018-02-09T11:40:38.524Z,62.1
2018-02-09T11:41:40.132Z,67.2
2018-02-09T11:42:41.754Z,68.6
2018-02-09T11:43:43.364Z,61.7
2018-02-09T11:44:44.981Z,60.7
2018-02-09T11:45:46.593Z,62.9
2018-02-09T11:46:48.213Z,57.6
2018-02-09T11:47:49.830Z,59.8
2018-02-09T11:48:51.438Z,56.2
2018-02-09T11:49:53.064Z,63.3
2018-02-09T11:50:54.666Z,61.0
2018-02-09T11:51:56.283Z,60.3
2018-02-09T11:52:57.896Z,61.5
2018-02-09T11:53:59.514Z,62.9
2018-02-09T11:55:01.126Z,64.2
2018-02-09T11:56:02.741Z,58.9
2018-02-09T11:57:04.355Z,67.3
2018-02-09T11:58:05.970Z,63.2
2018-02-09T11:59:07.581Z,56.7
2018-02-09T12:00:09.197Z,62.8
2018-02-09T12:01:10.809Z,61.8
2018-02-09T12:02:12.426Z,62.6
2018-02-09T12:03:14.036Z,60.0
2018-02-09T12:04:15.648Z,58.6
2018-02-09T12:05:17.263Z,61.2
2018-02-09T12:06:18.878Z,62.4
2018-02-09T12:07:20.492Z,62.4
2018-02-09T12:08:22.102Z,59.6
2018-02-09T12:09:23.722Z,59.9
2018-02-09T12:10:25.334Z,57.7
2018-02-09T12:11:26.944Z,58.3
2018-02-09T12:12:28.558Z,61.7
2018-02-09T12:13:30.175Z,57.9
2018-02-09T12:14:31.790Z,58.2
2018-02-09T12:15:33.408Z,62.6
2018-02-09T12:16:35.016Z,56.7
2018-02-09T12:17:36.658Z,61.0
2018-02-09T12:18:38.254Z,61.7
2018-02-09T12:19:39.857Z,64.9
2018-02-09T12:20:42.376Z,64.0
2018-02-09T12:21:44.037Z,66.9
2018-02-09T12:22:45.601Z,60.3
2018-02-09T12:23:47.218Z,64.5
2018-02-09T12:24:48.833Z,67.9
2018-02-09T12:25:50.441Z,60.9
2018-02-09T12:26:52.052Z,66.4
2018-02-09T12:27:53.671Z,70.2
2018-02-09T12:28:55.285Z,56.9
2018-02-09T12:29:56.897Z,65.3
2018-02-09T12:30:58.511Z,65.2
2018-02-09T12:32:00.125Z,59.2
2018-02-09T12:33:01.743Z,65.5
2018-02-09T12:34:03.354Z,60.8
2018-02-09T12:35:04.966Z,61.9
2018-02-09T12:36:06.582Z,63.9
2018-02-09T12:37:08.194Z,61.6
2018-02-09T12:38:09.821Z,62.8
2018-02-09T12:39:11.426Z,71.0
2018-02-09T12:40:13.035Z,64.2
2018-02-09T12:41:14.646Z,62.6
2018-02-09T12:42:16.264Z,70.1
2018-02-09T12:43:17.928Z,66.4
2018-02-09T12:44:19.490Z,62.7
2018-02-09T12:45:21.112Z,65.1
2018-02-09T12:46:22.719Z,61.7
2018-02-09T12:47:25.304Z,61.1
2018-02-09T12:48:26.914Z,61.3
2018-02-09T12:49:28.532Z,57.9
2018-02-09T12:50:30.150Z,59.2
2018-02-09T12:51:31.759Z,58.3
2018-02-09T12:52:33.373Z,66.3
2018-02-09T12:53:34.988Z,67.3
2018-02-09T12:54:36.599Z,61.9
2018-02-09T12:55:38.212Z,66.0
2018-02-09T12:56:39.828Z,68.0
2018-02-09T12:57:41.444Z,63.9
2018-02-09T12:58:43.056Z,58.5
2018-02-09T12:59:44.669Z,54.8
2018-02-09T13:00:46.284Z,56.8
2018-02-09T13:01:47.895Z,63.2
2018-02-09T13:02:49.510Z,53.3
2018-02-09T13:03:51.120Z,59.1
2018-02-09T13:04:52.738Z,55.9
2018-02-09T13:05:54.347Z,61.2
2018-02-09T13:06:55.961Z,63.3
2018-02-09T13:07:57.578Z,58.4
2018-02-09T13:08:59.189Z,61.5
2018-02-09T13:10:00.805Z,58.3
2018-02-09T13:11:02.415Z,58.6
2018-02-09T13:12:04.034Z,59.6
2018-02-09T13:13:05.645Z,61.8
2018-02-09T13:14:07.263Z,63.4
2018-02-09T13:15:08.871Z,59.1
2018-02-09T13:16:11.242Z,61.8
2018-02-09T13:17:12.850Z,59.9
2018-02-09T13:18:14.464Z,62.1
2018-02-09T13:19:16.076Z,59.2
2018-02-09T13:20:17.693Z,64.2
2018-02-09T13:21:19.302Z,59.6
2018-02-09T13:22:20.922Z,63.3
2018-02-09T13:23:22.527Z,59.1
2018-02-09T13:24:24.149Z,62.3
2018-02-09T13:25:25.747Z,58.5
2018-02-09T13:26:27.357Z,63.2
2018-02-09T13:27:28.974Z,65.4
2018-02-09T13:28:30.586Z,66.8
2018-02-09T13:29:32.199Z,65.8
2018-02-09T13:30:33.807Z,60.6
2018-02-09T13:31:35.425Z,63.1
2018-02-09T13:32:37.035Z,56.4
2018-02-09T13:33:38.652Z,60.2
2018-02-09T13:34:40.266Z,58.1
2018-02-09T13:35:41.882Z,58.0
2018-02-09T13:36:43.491Z,54.6
2018-02-09T13:37:45.104Z,61.9
2018-02-09T13:38:46.714Z,63.1
2018-02-09T13:39:48.331Z,58.9